SAMR/AFA METAR and TAF weather

Enter ICAO airport designator
Station Type Date Time Source
SAMR METAR 2021/06/16 19:00 UTC NOAA

SAMR 161900Z 18002KT 9999 BKN010 OVC025 02/M00 Q1028


Station Type Date Time Source
SAMR Decoded METAR 2021/06/16 19:00 UTC NOAA

San Rafael Aerodrome, Argentina (SAMR) 34-35S 068-24W 748M
Jun 16, 2021 - 03:00 PM EDT / 2021.06.16 1900 UTC
Wind: from the S (180 degrees) at 2 MPH (2 KT):0
Visibility: greater than 7 mile(s):0
Sky conditions: overcast
Temperature: 35 F (2 C)
Dew Point: 32 F (0 C)
Relative Humidity: 86%
Pressure (altimeter): 30.36 in. Hg (1028 hPa)
ob: SAMR 161900Z 18002KT 9999 BKN010 OVC025 02/M00 Q1028
cycle: 19

Station Type Date Time Source
SAMR TAF 2021/07/31 05:06 UTC NOAA

TAF SAMR 310500Z 3105/0106 18015KT 9999 FEW030 SCT100 TX12/3120Z TN01/3111Z
BECMG 3122/0100 09005KT CAVOK

Example: see airport list